createdAt,value
2023-07-27T00:01:19.159Z,63.95
2023-07-27T00:03:45.441Z,64.50
2023-07-27T00:06:11.606Z,64.49
2023-07-27T00:08:37.767Z,64.61
2023-07-27T00:11:03.929Z,65.56
2023-07-27T00:13:30.108Z,66.30
2023-07-27T00:15:56.274Z,66.41
2023-07-27T00:18:22.452Z,65.58
2023-07-27T00:20:48.609Z,64.93
2023-07-27T00:23:14.784Z,66.08
2023-07-27T00:25:40.948Z,65.69
2023-07-27T00:28:07.121Z,65.63
2023-07-27T00:30:33.303Z,66.03
2023-07-27T00:32:59.497Z,65.76
2023-07-27T00:35:25.701Z,65.12
2023-07-27T00:37:51.869Z,65.15
2023-07-27T00:40:18.038Z,64.73
2023-07-27T00:42:44.188Z,65.57
2023-07-27T00:45:10.371Z,66.29
2023-07-27T00:47:36.548Z,65.71
2023-07-27T00:50:02.753Z,65.99
2023-07-27T00:52:28.905Z,65.44
2023-07-27T00:54:55.176Z,65.05
2023-07-27T00:57:21.355Z,64.70
2023-07-27T00:59:47.515Z,66.46
2023-07-27T01:02:13.682Z,66.61
2023-07-27T01:04:39.838Z,66.42
2023-07-27T01:07:06.025Z,66.38
2023-07-27T01:09:32.197Z,66.36
2023-07-27T01:11:58.397Z,66.24
2023-07-27T01:14:24.561Z,65.28
2023-07-27T01:16:50.812Z,65.82
2023-07-27T01:19:17.078Z,66.17
2023-07-27T01:21:43.272Z,66.13
2023-07-27T01:24:09.433Z,65.78
2023-07-27T01:26:35.772Z,65.27
2023-07-27T01:29:02.072Z,63.70
2023-07-27T01:31:28.286Z,63.15
2023-07-27T01:33:54.456Z,63.76
2023-07-27T01:36:20.621Z,63.77
2023-07-27T01:38:46.780Z,61.83
2023-07-27T01:41:12.979Z,63.06
2023-07-27T01:43:39.153Z,64.27
2023-07-27T01:46:05.402Z,65.15
2023-07-27T01:48:31.592Z,65.04
2023-07-27T01:50:57.741Z,63.93
2023-07-27T01:53:23.928Z,64.02
2023-07-27T01:55:50.087Z,64.74
2023-07-27T01:58:16.250Z,64.62
2023-07-27T02:00:42.463Z,63.74
2023-07-27T02:03:08.718Z,62.97
2023-07-27T02:05:35.340Z,64.75
2023-07-27T02:08:01.511Z,65.48
2023-07-27T02:10:27.830Z,64.97
2023-07-27T02:12:53.983Z,64.50
2023-07-27T02:15:20.148Z,65.13
2023-07-27T02:17:46.368Z,64.58
2023-07-27T02:20:12.559Z,65.09
2023-07-27T02:22:38.722Z,65.68
2023-07-27T02:25:04.904Z,65.71
2023-07-27T02:27:31.070Z,65.21
2023-07-27T02:29:57.251Z,65.03
2023-07-27T02:32:23.447Z,64.46
2023-07-27T02:34:49.651Z,63.35
2023-07-27T02:37:15.828Z,64.24
2023-07-27T02:39:41.988Z,63.72
2023-07-27T02:42:08.156Z,64.55
2023-07-27T02:44:34.351Z,64.71
2023-07-27T02:47:00.509Z,64.89
2023-07-27T02:49:26.671Z,64.67
2023-07-27T02:51:52.826Z,64.11
2023-07-27T02:54:18.982Z,63.11
2023-07-27T02:56:45.165Z,63.10
2023-07-27T02:59:11.329Z,63.32
2023-07-27T03:01:37.531Z,63.78
2023-07-27T03:04:03.756Z,63.27
2023-07-27T03:06:29.930Z,63.04
2023-07-27T03:08:56.110Z,63.18
2023-07-27T03:11:22.276Z,62.75
2023-07-27T03:13:48.455Z,62.18
2023-07-27T03:16:14.618Z,61.65
2023-07-27T03:18:40.771Z,62.04
2023-07-27T03:21:06.950Z,62.19
2023-07-27T03:23:33.153Z,63.31
2023-07-27T03:25:59.340Z,63.21
2023-07-27T03:28:25.488Z,63.44
2023-07-27T03:30:51.674Z,64.10
2023-07-27T03:33:17.844Z,64.05
2023-07-27T03:35:43.995Z,63.70
2023-07-27T03:38:10.171Z,62.34
2023-07-27T03:40:36.395Z,61.72
2023-07-27T03:43:02.565Z,63.17
2023-07-27T03:45:28.712Z,64.71
2023-07-27T03:47:54.933Z,63.83
2023-07-27T03:50:21.150Z,63.63
2023-07-27T03:52:47.341Z,64.50
2023-07-27T03:55:13.569Z,63.86
2023-07-27T03:57:39.765Z,63.50
2023-07-27T04:00:06.060Z,62.48
2023-07-27T04:02:32.286Z,64.33
2023-07-27T04:04:58.520Z,64.40
2023-07-27T04:07:24.687Z,64.04
2023-07-27T04:09:50.879Z,63.68
2023-07-27T04:12:17.042Z,64.25
2023-07-27T04:14:43.203Z,63.44
2023-07-27T04:17:09.393Z,63.82
2023-07-27T04:19:35.566Z,64.13
2023-07-27T04:22:01.843Z,63.70
2023-07-27T04:24:28.027Z,63.70
2023-07-27T04:26:54.196Z,62.99
2023-07-27T04:29:20.352Z,63.56
2023-07-27T04:31:46.509Z,61.64
2023-07-27T04:34:12.712Z,60.81
2023-07-27T04:36:38.867Z,61.54
2023-07-27T04:39:05.049Z,61.68
2023-07-27T04:41:31.197Z,62.62
2023-07-27T04:43:57.890Z,62.52
2023-07-27T04:46:24.108Z,62.71
2023-07-27T04:48:50.318Z,62.37
2023-07-27T04:51:16.492Z,62.68
2023-07-27T04:53:42.661Z,61.83
2023-07-27T04:56:08.852Z,61.23
2023-07-27T04:58:35.028Z,61.29
2023-07-27T05:01:01.199Z,61.39
2023-07-27T05:03:27.353Z,62.95
2023-07-27T05:05:53.535Z,63.62
2023-07-27T05:08:19.717Z,62.12
2023-07-27T05:10:45.919Z,61.97
2023-07-27T05:13:12.087Z,62.63
2023-07-27T05:15:38.262Z,62.55
2023-07-27T05:18:04.430Z,62.06
2023-07-27T05:20:30.617Z,61.61
2023-07-27T05:22:56.788Z,61.55
2023-07-27T05:25:22.965Z,60.78
2023-07-27T05:27:49.147Z,59.63
2023-07-27T05:30:15.309Z,58.52
2023-07-27T05:32:41.478Z,58.70
2023-07-27T05:35:07.664Z,58.43
2023-07-27T05:37:33.862Z,58.00
2023-07-27T05:40:00.052Z,59.00
2023-07-27T05:42:26.237Z,58.27
2023-07-27T05:44:52.408Z,58.02
2023-07-27T05:47:18.569Z,59.86
2023-07-27T05:49:44.729Z,60.25
2023-07-27T05:52:10.909Z,58.51
2023-07-27T05:54:37.072Z,55.99
2023-07-27T05:57:03.253Z,54.91
2023-07-27T05:59:29.415Z,56.01
2023-07-27T06:01:55.630Z,55.05
2023-07-27T06:04:21.881Z,55.53
2023-07-27T06:06:48.077Z,56.18
2023-07-27T06:09:14.239Z,54.87
2023-07-27T06:11:40.397Z,54.52
2023-07-27T06:14:06.588Z,54.29
2023-07-27T06:16:33.119Z,53.80
2023-07-27T06:18:59.560Z,52.40
2023-07-27T06:21:25.725Z,50.75
2023-07-27T06:23:51.888Z,49.00
2023-07-27T06:26:18.063Z,54.03
2023-07-27T06:28:44.290Z,56.25
2023-07-27T06:31:10.483Z,55.58
2023-07-27T06:33:36.669Z,54.32
2023-07-27T06:36:02.846Z,52.66
2023-07-27T06:38:29.049Z,54.89
2023-07-27T06:40:55.241Z,53.42
2023-07-27T06:43:21.394Z,51.02
2023-07-27T06:45:47.562Z,48.76
2023-07-27T06:48:13.856Z,46.79
2023-07-27T06:50:40.229Z,49.08
2023-07-27T06:53:06.403Z,48.62
2023-07-27T06:55:32.563Z,47.53
2023-07-27T06:57:58.726Z,47.63
2023-07-27T07:00:24.892Z,47.03
2023-07-27T07:02:51.155Z,46.82
2023-07-27T07:05:17.437Z,46.94
2023-07-27T07:07:43.608Z,49.02
2023-07-27T07:10:09.800Z,45.38
2023-07-27T07:12:35.980Z,46.29
2023-07-27T07:15:02.189Z,47.54
2023-07-27T07:17:28.367Z,47.91
2023-07-27T07:19:54.571Z,48.03
2023-07-27T07:22:20.725Z,49.60
2023-07-27T07:24:46.943Z,48.76
2023-07-27T07:27:13.124Z,45.34
2023-07-27T07:29:39.282Z,45.97
2023-07-27T07:32:05.455Z,45.47
2023-07-27T07:34:31.663Z,43.64
2023-07-27T07:36:57.817Z,46.42
2023-07-27T07:39:23.970Z,42.80
2023-07-27T07:41:50.130Z,40.14
2023-07-27T07:44:16.296Z,40.87
2023-07-27T07:46:42.480Z,41.87
2023-07-27T07:49:08.658Z,43.45
2023-07-27T07:51:34.834Z,40.82
2023-07-27T07:54:00.999Z,37.88
2023-07-27T07:56:27.145Z,36.81
2023-07-27T07:58:53.322Z,35.63
2023-07-27T08:01:19.543Z,34.44
2023-07-27T08:03:45.839Z,35.17
2023-07-27T08:06:12.041Z,33.20
2023-07-27T08:08:38.193Z,33.84
2023-07-27T08:11:04.351Z,38.49
2023-07-27T08:13:30.524Z,36.58
2023-07-27T08:15:56.692Z,38.52
2023-07-27T08:18:22.867Z,37.97
2023-07-27T08:20:49.030Z,39.52
2023-07-27T08:23:15.214Z,40.62
2023-07-27T08:25:41.383Z,38.07
2023-07-27T08:28:07.540Z,36.50
2023-07-27T08:30:33.731Z,36.65
2023-07-27T08:33:00.092Z,37.08
2023-07-27T08:35:26.255Z,37.98
2023-07-27T08:37:52.419Z,36.21
2023-07-27T08:40:18.591Z,36.67
2023-07-27T08:42:44.824Z,35.75
2023-07-27T08:45:10.993Z,37.20
2023-07-27T08:47:37.226Z,37.23
2023-07-27T08:50:03.509Z,36.80
2023-07-27T08:52:29.706Z,37.82
2023-07-27T08:54:55.908Z,35.92
2023-07-27T08:57:22.076Z,37.87
2023-07-27T08:59:48.235Z,38.95
2023-07-27T09:02:14.459Z,37.11
2023-07-27T09:04:40.801Z,34.53
2023-07-27T09:07:07.047Z,32.91
2023-07-27T09:09:33.233Z,33.42
2023-07-27T09:11:59.412Z,32.68
2023-07-27T09:14:25.578Z,31.70
2023-07-27T09:16:54.698Z,30.92
2023-07-27T09:19:22.733Z,32.11
2023-07-27T09:21:48.894Z,30.79
2023-07-27T09:24:15.065Z,30.53
2023-07-27T09:26:41.241Z,31.75
2023-07-27T09:29:07.399Z,31.07
2023-07-27T09:31:33.628Z,29.74
2023-07-27T09:33:59.857Z,30.08
2023-07-27T09:36:26.057Z,28.89
2023-07-27T09:38:52.212Z,28.69
2023-07-27T09:41:18.400Z,28.31
2023-07-27T09:43:44.559Z,29.98
2023-07-27T09:46:10.796Z,30.02
2023-07-27T09:48:37.028Z,30.95
2023-07-27T09:51:03.272Z,29.82
2023-07-27T09:53:29.487Z,28.68
2023-07-27T09:55:55.683Z,27.99
2023-07-27T09:58:21.874Z,27.59
2023-07-27T10:00:48.051Z,25.58
2023-07-27T10:03:14.227Z,25.18
2023-07-27T10:05:40.426Z,25.08
2023-07-27T10:08:06.667Z,23.99
2023-07-27T10:10:32.866Z,21.85
2023-07-27T10:12:59.069Z,23.46
2023-07-27T10:15:25.245Z,25.32
2023-07-27T10:17:51.454Z,26.99
2023-07-27T10:20:17.684Z,26.51
2023-07-27T10:22:43.885Z,25.28
2023-07-27T10:25:10.044Z,25.10
2023-07-27T10:27:36.214Z,24.71
2023-07-27T10:30:02.375Z,24.74
2023-07-27T10:32:28.569Z,22.36
2023-07-27T10:34:54.781Z,20.72
2023-07-27T10:37:20.976Z,21.51
2023-07-27T10:39:47.154Z,20.88
2023-07-27T10:42:13.375Z,21.69
2023-07-27T10:44:39.582Z,22.96
2023-07-27T10:47:05.754Z,23.91
2023-07-27T10:49:31.927Z,22.67
2023-07-27T10:51:58.869Z,22.15
2023-07-27T10:54:25.449Z,23.22
2023-07-27T10:56:51.607Z,23.29
2023-07-27T10:59:18.091Z,21.24
2023-07-27T11:01:44.230Z,20.19
2023-07-27T11:04:10.417Z,20.97
2023-07-27T11:06:36.589Z,21.77
2023-07-27T11:09:02.751Z,19.92
2023-07-27T11:11:28.904Z,21.84
2023-07-27T11:13:55.059Z,22.07
2023-07-27T11:16:21.261Z,25.05
2023-07-27T11:18:47.471Z,26.70
2023-07-27T11:21:13.626Z,25.96
2023-07-27T11:23:39.799Z,26.19
2023-07-27T11:26:05.978Z,29.26
2023-07-27T11:28:32.145Z,29.64
2023-07-27T11:30:58.336Z,30.28
2023-07-27T11:33:24.494Z,32.19
2023-07-27T11:35:51.094Z,29.64
2023-07-27T11:38:17.280Z,29.71
2023-07-27T11:40:43.655Z,31.23
2023-07-27T11:43:09.829Z,29.02
2023-07-27T11:45:35.983Z,29.70
2023-07-27T11:48:02.215Z,31.00
2023-07-27T11:50:28.373Z,32.51
2023-07-27T11:52:54.547Z,31.61
2023-07-27T11:55:20.697Z,31.80
2023-07-27T11:57:46.890Z,31.36
2023-07-27T12:00:13.104Z,34.12
2023-07-27T12:02:42.872Z,33.90
2023-07-27T12:05:09.564Z,33.47
2023-07-27T12:15:02.906Z,32.18
2023-07-27T12:24:56.852Z,30.30
2023-07-27T12:27:23.127Z,30.06
2023-07-27T12:29:49.332Z,30.14
2023-07-27T12:32:15.769Z,30.93
2023-07-27T12:39:40.326Z,30.82
2023-07-27T12:44:35.580Z,30.63
2023-07-27T12:47:01.757Z,30.79
2023-07-27T12:49:27.930Z,30.51
2023-07-27T12:51:54.143Z,32.28
2023-07-27T12:54:20.344Z,32.30
2023-07-27T12:56:47.343Z,33.77
2023-07-27T12:59:13.522Z,33.94
2023-07-27T13:01:39.747Z,33.65
2023-07-27T13:04:06.024Z,33.58
2023-07-27T13:06:34.600Z,33.55
2023-07-27T13:09:01.175Z,33.70
2023-07-27T13:11:27.342Z,34.03
2023-07-27T13:13:53.537Z,34.36
2023-07-27T13:16:19.745Z,35.81
2023-07-27T13:18:45.955Z,34.58
2023-07-27T13:21:12.145Z,36.91
2023-07-27T13:23:38.299Z,34.62
2023-07-27T13:26:04.465Z,34.73
2023-07-27T13:28:30.722Z,33.69
2023-07-27T13:30:56.918Z,35.91
2023-07-27T13:33:23.157Z,34.92
2023-07-27T13:35:49.370Z,33.26
2023-07-27T13:38:15.554Z,33.26
2023-07-27T13:40:41.729Z,33.80
2023-07-27T13:43:07.920Z,32.07
2023-07-27T13:45:34.104Z,32.56
2023-07-27T13:48:09.454Z,32.90
2023-07-27T13:50:36.648Z,32.97
2023-07-27T13:53:02.815Z,32.78
2023-07-27T13:55:29.012Z,33.12
2023-07-27T13:57:55.178Z,32.71
2023-07-27T14:00:21.345Z,31.75
2023-07-27T14:02:47.578Z,31.93
2023-07-27T14:05:13.840Z,31.42
2023-07-27T14:07:40.022Z,31.11
2023-07-27T14:10:06.261Z,30.93
2023-07-27T14:12:32.424Z,31.98
2023-07-27T14:14:58.634Z,32.08
2023-07-27T14:17:25.381Z,31.82
2023-07-27T14:19:51.675Z,31.92
2023-07-27T14:22:17.843Z,31.68
2023-07-27T14:24:44.027Z,31.52
2023-07-27T14:27:10.191Z,30.25
2023-07-27T14:29:36.367Z,31.45
2023-07-27T14:32:02.604Z,31.13
2023-07-27T14:34:28.818Z,31.69
2023-07-27T14:36:55.072Z,31.18
2023-07-27T14:39:21.244Z,31.56
2023-07-27T14:41:47.411Z,31.20
2023-07-27T14:44:13.907Z,31.45
2023-07-27T14:46:40.606Z,31.06
2023-07-27T14:49:06.777Z,31.50
2023-07-27T14:51:33.396Z,30.35
2023-07-27T14:54:00.957Z,29.63
2023-07-27T14:56:27.757Z,28.73
2023-07-27T14:58:55.095Z,30.10
2023-07-27T15:01:30.385Z,29.47
2023-07-27T15:03:57.087Z,30.92
2023-07-27T15:06:23.493Z,31.38
2023-07-27T15:08:49.913Z,31.44
2023-07-27T15:13:45.228Z,30.86
2023-07-27T15:16:11.418Z,31.81
2023-07-27T15:18:37.612Z,31.20
2023-07-27T15:21:03.832Z,30.05
2023-07-27T15:23:29.986Z,29.88
2023-07-27T15:25:56.139Z,29.96
2023-07-27T15:28:22.382Z,30.98
2023-07-27T15:30:48.610Z,30.73
2023-07-27T15:33:14.827Z,31.53
2023-07-27T15:35:41.124Z,31.81
2023-07-27T15:38:07.301Z,31.70
2023-07-27T15:40:33.461Z,30.24
2023-07-27T15:42:59.629Z,31.80
2023-07-27T15:45:25.812Z,31.11
2023-07-27T15:47:52.030Z,31.09
2023-07-27T15:50:18.220Z,30.74
2023-07-27T15:52:44.419Z,31.23
2023-07-27T15:55:10.612Z,30.55
2023-07-27T15:57:36.809Z,30.05
2023-07-27T16:00:02.994Z,30.59
2023-07-27T16:02:29.268Z,30.43
2023-07-27T16:04:55.513Z,30.54
2023-07-27T16:07:21.685Z,31.04
2023-07-27T16:09:47.863Z,29.96
2023-07-27T16:12:14.020Z,30.21
2023-07-27T16:14:40.175Z,31.54
2023-07-27T16:17:06.432Z,31.61
2023-07-27T16:19:32.665Z,31.65
2023-07-27T16:21:58.835Z,32.98
2023-07-27T16:24:24.983Z,32.61
2023-07-27T16:26:51.156Z,33.04
2023-07-27T16:29:17.336Z,32.21
2023-07-27T16:31:43.486Z,31.44
2023-07-27T16:34:09.656Z,32.02
2023-07-27T16:36:36.004Z,32.10
2023-07-27T16:39:02.319Z,30.87
2023-07-27T16:41:28.476Z,28.74
2023-07-27T16:43:54.644Z,33.69
2023-07-27T16:46:20.859Z,33.11
2023-07-27T16:48:47.057Z,32.90
2023-07-27T16:51:13.228Z,33.56
2023-07-27T16:53:39.406Z,33.45
2023-07-27T16:56:05.587Z,33.89
2023-07-27T16:58:31.755Z,34.94
2023-07-27T17:00:57.974Z,34.51
2023-07-27T17:03:24.253Z,35.77
2023-07-27T17:05:50.439Z,36.32
2023-07-27T17:08:16.619Z,36.39
2023-07-27T17:10:42.780Z,36.14
2023-07-27T17:13:08.936Z,37.04
2023-07-27T17:15:35.117Z,37.44
2023-07-27T17:18:01.301Z,37.52
2023-07-27T17:20:27.526Z,37.39
2023-07-27T17:22:53.710Z,37.25
2023-07-27T17:25:19.880Z,38.27
2023-07-27T17:27:46.056Z,39.55
2023-07-27T17:30:12.238Z,38.57
2023-07-27T17:32:38.403Z,37.84
2023-07-27T17:35:04.610Z,39.27
2023-07-27T17:37:30.791Z,42.14
2023-07-27T17:39:56.963Z,43.85
2023-07-27T17:42:23.209Z,43.29
2023-07-27T17:44:49.359Z,42.88
2023-07-27T17:47:15.533Z,42.61
2023-07-27T17:49:41.730Z,42.52
2023-07-27T17:52:07.921Z,44.33
2023-07-27T17:54:34.083Z,44.75
2023-07-27T17:57:00.254Z,44.51
2023-07-27T17:59:26.420Z,44.08
2023-07-27T18:01:52.651Z,43.73
2023-07-27T18:04:18.872Z,43.18
2023-07-27T18:06:45.103Z,44.08
2023-07-27T18:09:11.298Z,44.98
2023-07-27T18:11:37.655Z,44.92
2023-07-27T18:14:04.043Z,45.14
2023-07-27T18:16:30.250Z,45.77
2023-07-27T18:18:56.465Z,45.33
2023-07-27T18:21:22.652Z,45.11
2023-07-27T18:23:48.872Z,46.08
2023-07-27T18:26:15.083Z,46.19
2023-07-27T18:28:41.276Z,45.57
2023-07-27T18:31:07.487Z,46.02
2023-07-27T18:33:33.646Z,45.86
2023-07-27T18:35:59.845Z,45.61
2023-07-27T18:38:26.007Z,46.69
2023-07-27T18:40:52.176Z,47.15
2023-07-27T18:43:18.350Z,46.73
2023-07-27T18:45:44.582Z,47.54
2023-07-27T18:48:10.753Z,47.84
2023-07-27T18:50:36.919Z,47.64
2023-07-27T18:53:03.099Z,47.88
2023-07-27T18:55:29.251Z,47.94
2023-07-27T18:57:55.421Z,47.76
2023-07-27T19:00:21.585Z,48.33
2023-07-27T19:02:47.809Z,48.37
2023-07-27T19:05:14.014Z,47.76
2023-07-27T19:07:40.175Z,45.92
2023-07-27T19:10:06.423Z,47.68
2023-07-27T19:12:32.589Z,48.56
2023-07-27T19:14:58.748Z,49.15
2023-07-27T19:17:24.929Z,49.01
2023-07-27T19:19:51.125Z,49.12
2023-07-27T19:22:17.297Z,49.96
2023-07-27T19:24:43.483Z,50.05
2023-07-27T19:27:09.641Z,49.76
2023-07-27T19:29:35.826Z,49.53
2023-07-27T19:32:02.011Z,50.00
2023-07-27T19:34:28.185Z,50.09
2023-07-27T19:36:54.336Z,50.65
2023-07-27T19:39:20.501Z,50.52
2023-07-27T19:41:46.656Z,50.20
2023-07-27T19:44:12.817Z,50.61
2023-07-27T19:46:39.108Z,51.37
2023-07-27T19:49:05.310Z,50.69
2023-07-27T19:51:31.474Z,51.28
2023-07-27T19:53:57.687Z,50.77
2023-07-27T19:56:23.875Z,50.64
2023-07-27T19:58:50.083Z,50.97
2023-07-27T20:01:17.580Z,51.41
2023-07-27T20:03:44.257Z,51.47
2023-07-27T20:06:10.429Z,51.45
2023-07-27T20:08:46.537Z,52.06
2023-07-27T20:11:13.869Z,51.80
2023-07-27T20:13:40.050Z,51.51
2023-07-27T20:16:06.222Z,51.77
2023-07-27T20:18:32.400Z,52.12
2023-07-27T20:20:58.570Z,52.98
2023-07-27T20:23:24.762Z,52.48
2023-07-27T20:25:50.920Z,52.68
2023-07-27T20:28:17.116Z,52.68
2023-07-27T20:30:43.353Z,52.57
2023-07-27T20:33:09.551Z,52.15
2023-07-27T20:35:35.732Z,52.12
2023-07-27T20:38:01.898Z,52.39
2023-07-27T20:40:28.225Z,52.14
2023-07-27T20:42:54.440Z,52.71
2023-07-27T20:45:20.604Z,52.68
2023-07-27T20:47:46.807Z,52.88
2023-07-27T20:50:12.977Z,52.54
2023-07-27T20:52:39.157Z,53.12
2023-07-27T20:55:05.323Z,53.26
2023-07-27T20:57:31.470Z,53.01
2023-07-27T20:59:57.657Z,53.18
2023-07-27T21:02:23.852Z,53.02
2023-07-27T21:04:50.017Z,53.84
2023-07-27T21:07:16.188Z,54.61
2023-07-27T21:09:42.361Z,54.59
2023-07-27T21:12:08.532Z,54.00
2023-07-27T21:14:34.695Z,53.45
2023-07-27T21:17:00.873Z,52.52
2023-07-27T21:19:27.037Z,53.16
2023-07-27T21:21:53.217Z,53.44
2023-07-27T21:24:19.396Z,53.81
2023-07-27T21:26:45.548Z,53.22
2023-07-27T21:29:11.736Z,53.35
2023-07-27T21:31:37.965Z,54.31
2023-07-27T21:34:04.171Z,54.27
2023-07-27T21:36:30.343Z,53.88
2023-07-27T21:38:56.527Z,53.90
2023-07-27T21:41:22.693Z,52.81
2023-07-27T21:43:48.863Z,53.65
2023-07-27T21:46:15.080Z,54.62
2023-07-27T21:48:41.286Z,54.27
2023-07-27T21:51:07.465Z,54.54
2023-07-27T21:53:33.678Z,54.55
2023-07-27T21:56:00.712Z,55.27
2023-07-27T21:58:26.881Z,55.08
2023-07-27T22:00:53.031Z,55.00
2023-07-27T22:03:19.232Z,55.17
2023-07-27T22:05:45.402Z,54.99
2023-07-27T22:08:11.549Z,55.17
2023-07-27T22:10:37.733Z,55.37
2023-07-27T22:13:03.914Z,54.57
2023-07-27T22:15:30.289Z,54.48
2023-07-27T22:17:56.642Z,54.42
2023-07-27T22:20:22.828Z,54.28
2023-07-27T22:22:49.001Z,53.63
2023-07-27T22:25:15.163Z,53.51
2023-07-27T22:27:41.341Z,53.73
2023-07-27T22:30:07.508Z,52.84
2023-07-27T22:32:33.693Z,53.22
2023-07-27T22:34:59.899Z,54.56
2023-07-27T22:37:26.075Z,55.56
2023-07-27T22:39:52.245Z,55.47
2023-07-27T22:42:18.424Z,54.76
2023-07-27T22:44:44.584Z,55.14
2023-07-27T22:47:10.808Z,55.74
2023-07-27T22:49:37.059Z,55.72
2023-07-27T22:52:03.277Z,55.26
2023-07-27T22:54:29.472Z,54.75
2023-07-27T22:56:55.627Z,53.26
2023-07-27T22:59:21.824Z,53.95
2023-07-27T23:01:48.166Z,53.67
2023-07-27T23:04:14.344Z,54.47
2023-07-27T23:06:40.599Z,54.89
2023-07-27T23:09:06.768Z,54.52
2023-07-27T23:11:32.959Z,54.85
2023-07-27T23:13:59.129Z,55.07
2023-07-27T23:16:25.347Z,55.58
2023-07-27T23:18:51.557Z,54.68
2023-07-27T23:21:17.733Z,54.55
2023-07-27T23:23:43.896Z,55.07
2023-07-27T23:26:10.067Z,55.72
2023-07-27T23:28:36.237Z,55.29
2023-07-27T23:31:02.433Z,55.28
2023-07-27T23:33:28.634Z,53.97
2023-07-27T23:35:54.813Z,55.11
2023-07-27T23:38:20.974Z,55.49
2023-07-27T23:40:47.219Z,55.73
2023-07-27T23:43:13.395Z,55.52
2023-07-27T23:45:39.567Z,55.17
2023-07-27T23:48:05.770Z,54.13
2023-07-27T23:50:31.946Z,53.11
2023-07-27T23:52:58.135Z,53.19
2023-07-27T23:55:24.309Z,52.51
2023-07-27T23:57:50.502Z,53.85
